Time,TemperatureF,DewpointF,PressureIn,WindDirection,WindDirectionDegrees,WindSpeedMPH,WindSpeedGustMPH,Humidity,HourlyPrecipIn,Conditions,Clouds,dailyrainin,SoftwareType,DateUTC
2014-01-04 00:04:00,45.9,41.4,29.57,SW,225,6.0,15.0,84,0.00,,,0.09,meteohub,2014-01-03 23:04:00,
2014-01-04 00:09:00,45.9,41.4,29.57,SSW,202,4.0,15.0,84,0.00,,,0.00,meteohub,2014-01-03 23:09:00,
2014-01-04 00:14:00,45.9,41.5,29.57,SSW,202,6.0,15.0,85,0.00,,,0.00,meteohub,2014-01-03 23:14:00,
2014-01-04 00:19:00,45.9,41.5,29.60,SSW,202,4.0,10.0,85,0.00,,,0.00,meteohub,2014-01-03 23:19:00,
2014-01-04 00:24:00,45.9,41.5,29.60,NW,315,4.0,13.0,85,0.00,,,0.00,meteohub,2014-01-03 23:24:00,
2014-01-04 00:29:00,46.0,41.7,29.60,WSW,248,7.0,19.0,85,0.00,,,0.00,meteohub,2014-01-03 23:29:00,
2014-01-04 00:34:00,46.0,41.5,29.60,South,180,4.0,19.0,84,0.00,,,0.00,meteohub,2014-01-03 23:34:00,
2014-01-04 00:40:00,46.0,41.5,29.60,South,180,9.0,19.0,84,0.00,,,0.00,meteohub,2014-01-03 23:40:00,
2014-01-04 00:45:00,46.0,41.5,29.60,SSW,202,4.0,17.0,84,0.00,,,0.00,meteohub,2014-01-03 23:45:00,
2014-01-04 00:50:00,46.0,41.5,29.60,SSW,202,4.0,17.0,84,0.00,,,0.00,meteohub,2014-01-03 23:50:00,
2014-01-04 00:55:00,45.9,41.4,29.60,SW,225,6.0,16.0,84,0.00,,,0.00,meteohub,2014-01-03 23:55:00,
2014-01-04 01:00:00,45.9,41.4,29.60,South,180,5.0,16.0,84,0.00,,,0.00,meteohub,2014-01-04 00:00:00,
2014-01-04 01:05:00,45.9,41.5,29.57,SSW,202,7.0,15.0,85,0.00,,,0.00,meteohub,2014-01-04 00:05:00,
2014-01-04 01:10:00,45.9,41.5,29.57,SSW,202,9.0,15.0,85,0.00,,,0.00,meteohub,2014-01-04 00:10:00,
2014-01-04 01:15:00,46.0,42.1,29.57,SSW,202,8.0,11.0,86,0.00,,,0.00,meteohub,2014-01-04 00:15:00,
2014-01-04 01:20:00,46.0,42.1,29.60,ESE,112,4.0,12.0,86,0.00,,,0.00,meteohub,2014-01-04 00:20:00,
2014-01-04 01:25:00,46.0,42.4,29.60,WSW,248,9.0,12.0,87,0.00,,,0.00,meteohub,2014-01-04 00:25:00,
2014-01-04 01:31:00,46.0,42.4,29.60,South,180,5.0,15.0,87,0.00,,,0.00,meteohub,2014-01-04 00:31:00,
2014-01-04 01:36:00,46.0,42.4,29.63,SSW,202,6.0,15.0,87,0.00,,,0.00,meteohub,2014-01-04 00:36:00,
2014-01-04 01:37:00,46.0,42.1,29.63,South,180,4.0,15.0,86,0.00,,,0.00,meteohub,2014-01-04 00:37:00,
2014-01-04 01:42:00,46.0,42.1,29.63,South,180,4.0,15.0,86,0.00,,,0.00,meteohub,2014-01-04 00:42:00,
2014-01-04 01:47:00,45.9,42.3,29.63,SSW,202,4.0,17.0,87,0.00,,,0.00,meteohub,2014-01-04 00:47:00,
2014-01-04 01:52:00,45.9,42.3,29.60,SSW,202,14.0,17.0,87,0.00,,,0.00,meteohub,2014-01-04 00:52:00,
2014-01-04 01:57:00,45.9,42.4,29.60,SW,225,6.0,17.0,88,0.00,,,0.00,meteohub,2014-01-04 00:57:00,
2014-01-04 02:02:00,45.9,42.4,29.60,SSW,202,8.0,15.0,88,0.00,,,0.00,meteohub,2014-01-04 01:02:00,
2014-01-04 02:07:00,45.9,42.4,29.60,South,180,4.0,15.0,88,0.00,,,0.00,meteohub,2014-01-04 01:07:00,
2014-01-04 02:12:00,45.9,42.4,29.60,South,180,5.0,13.0,88,0.00,,,0.00,meteohub,2014-01-04 01:12:00,
2014-01-04 02:18:00,45.9,42.4,29.60,SW,225,5.0,13.0,88,0.00,,,0.00,meteohub,2014-01-04 01:18:00,
2014-01-04 02:23:00,46.0,42.6,29.60,ESE,112,11.0,13.0,88,0.00,,,0.00,meteohub,2014-01-04 01:23:00,
2014-01-04 02:28:00,46.2,42.6,29.60,SSE,158,8.0,13.0,87,0.00,,,0.00,meteohub,2014-01-04 01:28:00,
2014-01-04 02:33:00,46.2,42.6,29.63,SE,135,6.0,12.0,87,0.00,,,0.00,meteohub,2014-01-04 01:33:00,
2014-01-04 02:38:00,46.0,42.4,29.63,NNW,338,8.0,13.0,87,0.00,,,0.00,meteohub,2014-01-04 01:38:00,
2014-01-04 02:43:00,45.9,42.3,29.63,WSW,248,11.0,13.0,87,0.00,,,0.00,meteohub,2014-01-04 01:43:00,
2014-01-04 02:48:00,45.7,42.1,29.63,SSW,202,8.0,15.0,87,0.00,,,0.00,meteohub,2014-01-04 01:48:00,
2014-01-04 02:53:00,45.7,42.1,29.63,SSE,158,6.0,15.0,87,0.00,,,0.00,meteohub,2014-01-04 01:53:00,
2014-01-04 02:58:00,45.7,42.1,29.63,SW,225,4.0,15.0,87,0.00,,,0.00,meteohub,2014-01-04 01:58:00,
2014-01-04 03:04:00,45.7,42.1,29.63,SE,135,3.0,10.0,87,0.00,,,0.00,meteohub,2014-01-04 02:04:00,
2014-01-04 03:09:00,45.5,41.9,29.63,SSW,202,8.0,10.0,87,0.00,,,0.00,meteohub,2014-01-04 02:09:00,
2014-01-04 03:14:00,45.3,41.7,29.63,SSW,202,2.0,10.0,87,0.00,,,0.00,meteohub,2014-01-04 02:14:00,
2014-01-04 03:19:00,45.1,41.5,29.63,SSE,158,4.0,10.0,87,0.00,,,0.00,meteohub,2014-01-04 02:19:00,
2014-01-04 03:24:00,45.0,41.4,29.63,South,180,6.0,10.0,87,0.00,,,0.00,meteohub,2014-01-04 02:24:00,
2014-01-04 03:29:00,44.8,41.2,29.63,WNW,292,2.0,7.0,87,0.00,,,0.00,meteohub,2014-01-04 02:29:00,
2014-01-04 03:34:00,44.6,41.0,29.63,SSE,158,6.0,7.0,87,0.00,,,0.00,meteohub,2014-01-04 02:34:00,
2014-01-04 03:39:00,44.6,41.0,29.63,NNW,338,3.0,7.0,87,0.00,,,0.00,meteohub,2014-01-04 02:39:00,
2014-01-04 03:44:00,44.6,41.4,29.63,WSW,248,3.0,10.0,88,0.00,,,0.00,meteohub,2014-01-04 02:44:00,
2014-01-04 03:50:00,44.6,41.4,29.63,SSE,158,5.0,10.0,88,0.00,,,0.00,meteohub,2014-01-04 02:50:00,
2014-01-04 03:55:00,44.6,41.4,29.63,SE,135,4.0,10.0,88,0.00,,,0.00,meteohub,2014-01-04 02:55:00,
2014-01-04 04:00:00,44.8,41.5,29.63,SSW,202,4.0,13.0,88,0.00,,,0.00,meteohub,2014-01-04 03:00:00,
2014-01-04 04:05:00,44.8,41.5,29.63,SSE,158,3.0,13.0,88,0.00,,,0.00,meteohub,2014-01-04 03:05:00,
2014-01-04 04:10:00,44.8,41.2,29.63,SSW,202,6.0,9.0,87,0.00,,,0.00,meteohub,2014-01-04 03:10:00,
2014-01-04 04:15:00,44.8,41.2,29.63,SSW,202,3.0,9.0,87,0.00,,,0.00,meteohub,2014-01-04 03:15:00,
2014-01-04 04:20:00,44.6,41.0,29.63,South,180,2.0,9.0,87,0.00,,,0.00,meteohub,2014-01-04 03:20:00,
2014-01-04 04:25:00,44.6,41.0,29.63,SSW,202,2.0,9.0,87,0.00,,,0.00,meteohub,2014-01-04 03:25:00,
2014-01-04 04:30:00,44.4,40.8,29.63,SSW,202,2.0,11.0,87,0.00,,,0.00,meteohub,2014-01-04 03:30:00,
2014-01-04 04:36:00,44.4,40.8,29.63,SSE,158,3.0,11.0,87,0.00,,,0.00,meteohub,2014-01-04 03:36:00,
2014-01-04 04:41:00,44.4,40.8,29.63,SSW,202,3.0,11.0,87,0.00,,,0.00,meteohub,2014-01-04 03:41:00,
2014-01-04 04:46:00,44.4,40.8,29.63,SSW,202,4.0,11.0,87,0.00,,,0.00,meteohub,2014-01-04 03:46:00,
2014-01-04 04:51:00,44.4,40.5,29.63,South,180,3.0,11.0,86,0.00,,,0.00,meteohub,2014-01-04 03:51:00,
2014-01-04 04:56:00,44.4,40.5,29.63,SSW,202,4.0,11.0,86,0.00,,,0.00,meteohub,2014-01-04 03:56:00,
2014-01-04 05:01:00,44.6,40.6,29.63,SSW,202,3.0,11.0,86,0.00,,,0.00,meteohub,2014-01-04 04:01:00,
2014-01-04 05:06:00,44.6,40.6,29.63,SSW,202,4.0,9.0,86,0.00,,,0.00,meteohub,2014-01-04 04:06:00,
2014-01-04 05:11:00,44.8,40.6,29.63,SSW,202,4.0,9.0,85,0.00,,,0.00,meteohub,2014-01-04 04:11:00,
2014-01-04 05:16:00,45.0,40.8,29.63,SSW,202,3.0,9.0,85,0.00,,,0.00,meteohub,2014-01-04 04:16:00,
2014-01-04 05:22:00,44.8,40.6,29.63,SSW,202,2.0,9.0,85,0.00,,,0.00,meteohub,2014-01-04 04:22:00,
2014-01-04 05:27:00,45.0,40.8,29.63,WNW,292,8.0,8.0,85,0.00,,,0.00,meteohub,2014-01-04 04:27:00,
2014-01-04 05:32:00,44.8,40.3,29.63,SW,225,3.0,8.0,84,0.00,,,0.00,meteohub,2014-01-04 04:32:00,
2014-01-04 05:37:00,45.0,40.5,29.60,WSW,248,2.0,8.0,84,0.00,,,0.00,meteohub,2014-01-04 04:37:00,
2014-01-04 05:42:00,45.0,40.5,29.60,WSW,248,3.0,8.0,84,0.00,,,0.00,meteohub,2014-01-04 04:42:00,
2014-01-04 05:47:00,45.1,41.0,29.60,SSW,202,6.0,8.0,85,0.00,,,0.00,meteohub,2014-01-04 04:47:00,
2014-01-04 05:52:00,45.1,41.0,29.60,SSW,202,3.0,7.0,85,0.00,,,0.00,meteohub,2014-01-04 04:52:00,
2014-01-04 05:57:00,45.1,41.0,29.60,SSE,158,3.0,7.0,85,0.00,,,0.00,meteohub,2014-01-04 04:57:00,
2014-01-04 06:02:00,45.1,41.0,29.60,SSW,202,2.0,8.0,85,0.00,,,0.00,meteohub,2014-01-04 05:02:00,
2014-01-04 06:03:00,45.1,41.0,29.60,WNW,292,2.0,8.0,85,0.00,,,0.00,meteohub,2014-01-04 05:03:00,
2014-01-04 06:07:00,45.3,41.0,29.60,SW,225,4.0,9.0,85,0.00,,,0.00,meteohub,2014-01-04 05:07:00,
2014-01-04 06:10:00,45.1,41.0,29.60,SSE,158,8.0,9.0,85,0.00,,,0.00,meteohub,2014-01-04 05:10:00,
2014-01-04 06:15:00,45.1,41.0,29.60,SSW,202,5.0,9.0,85,0.00,,,0.00,meteohub,2014-01-04 05:15:00,
2014-01-04 06:20:00,45.1,41.0,29.60,SSW,202,1.0,9.0,85,0.00,,,0.00,meteohub,2014-01-04 05:20:00,
2014-01-04 06:25:00,45.0,40.8,29.60,SSW,202,1.0,11.0,85,0.00,,,0.00,meteohub,2014-01-04 05:25:00,
2014-01-04 06:26:00,45.0,41.0,29.60,SSW,202,2.0,11.0,86,0.00,,,0.00,meteohub,2014-01-04 05:26:00,
2014-01-04 06:31:00,44.8,40.8,29.60,SSW,202,4.0,11.0,86,0.00,,,0.00,meteohub,2014-01-04 05:31:00,
2014-01-04 06:36:00,44.8,40.8,29.57,WSW,248,3.0,7.0,86,0.00,,,0.00,meteohub,2014-01-04 05:36:00,
2014-01-04 06:42:00,44.8,40.8,29.57,SSE,158,2.0,6.0,86,0.00,,,0.00,meteohub,2014-01-04 05:42:00,
2014-01-04 06:47:00,44.8,41.2,29.57,SSW,202,3.0,7.0,87,0.00,,,0.00,meteohub,2014-01-04 05:47:00,
2014-01-04 06:52:00,44.8,41.2,29.60,SSW,202,3.0,7.0,87,0.00,,,0.00,meteohub,2014-01-04 05:52:00,
2014-01-04 06:57:00,44.8,41.2,29.60,SSW,202,5.0,7.0,87,0.00,,,0.00,meteohub,2014-01-04 05:57:00,
2014-01-04 07:02:00,44.8,41.5,29.60,SSW,202,3.0,10.0,88,0.00,,,0.00,meteohub,2014-01-04 06:02:00,
2014-01-04 07:07:00,44.8,41.5,29.60,SSW,202,5.0,10.0,88,0.00,,,0.00,meteohub,2014-01-04 06:07:00,
2014-01-04 07:12:00,44.8,41.5,29.60,South,180,1.0,10.0,88,0.00,,,0.00,meteohub,2014-01-04 06:12:00,
2014-01-04 07:17:00,44.8,41.7,29.60,SSW,202,3.0,7.0,89,0.00,,,0.00,meteohub,2014-01-04 06:17:00,
2014-01-04 07:18:00,44.8,41.7,29.60,SSW,202,2.0,7.0,89,0.00,,,0.00,meteohub,2014-01-04 06:18:00,
2014-01-04 07:23:00,44.8,41.7,29.60,SSE,158,2.0,6.0,89,0.00,,,0.00,meteohub,2014-01-04 06:23:00,
2014-01-04 07:29:00,44.8,41.7,29.60,SSW,202,1.0,6.0,89,0.00,,,0.00,meteohub,2014-01-04 06:29:00,
2014-01-04 07:34:00,44.8,41.7,29.60,SSW,202,1.0,6.0,89,0.00,,,0.00,meteohub,2014-01-04 06:34:00,
2014-01-04 07:39:00,44.8,41.7,29.60,WSW,248,2.0,6.0,89,0.00,,,0.00,meteohub,2014-01-04 06:39:00,
2014-01-04 07:44:00,44.8,42.1,29.60,ESE,112,3.0,6.0,90,0.00,,,0.00,meteohub,2014-01-04 06:44:00,
2014-01-04 07:49:00,44.8,42.1,29.60,SSW,202,2.0,5.0,90,0.00,,,0.00,meteohub,2014-01-04 06:49:00,
2014-01-04 07:54:00,44.6,41.9,29.60,ESE,112,2.0,5.0,90,0.00,,,0.00,meteohub,2014-01-04 06:54:00,
2014-01-04 07:59:00,44.6,41.9,29.60,SSE,158,3.0,7.0,90,0.00,,,0.00,meteohub,2014-01-04 06:59:00,
2014-01-04 08:04:00,44.6,41.9,29.60,South,180,1.0,7.0,90,0.00,,,0.00,meteohub,2014-01-04 07:04:00,
2014-01-04 08:09:00,44.6,41.9,29.60,SSE,158,0.0,7.0,90,0.00,,,0.00,meteohub,2014-01-04 07:09:00,
2014-01-04 08:14:00,44.6,41.9,29.60,SSE,158,2.0,6.0,90,0.00,,,0.00,meteohub,2014-01-04 07:14:00,
2014-01-04 08:20:00,44.4,41.7,29.60,SSE,158,1.0,5.0,90,0.00,,,0.00,meteohub,2014-01-04 07:20:00,
2014-01-04 08:25:00,44.4,41.7,29.60,NNW,338,1.0,5.0,90,0.00,,,0.00,meteohub,2014-01-04 07:25:00,
2014-01-04 08:30:00,44.2,41.5,29.60,SSE,158,0.0,4.0,90,0.00,,,0.00,meteohub,2014-01-04 07:30:00,
2014-01-04 08:35:00,44.1,41.4,29.60,WSW,248,0.0,4.0,90,0.00,,,0.00,meteohub,2014-01-04 07:35:00,
2014-01-04 08:40:00,43.9,41.2,29.60,SE,135,5.0,6.0,90,0.00,,,0.00,meteohub,2014-01-04 07:40:00,
2014-01-04 08:45:00,43.9,41.4,29.60,SSW,202,2.0,6.0,91,0.00,,,0.00,meteohub,2014-01-04 07:45:00,
2014-01-04 08:50:00,43.9,41.4,29.60,ENE,68,1.0,6.0,91,0.00,,,0.00,meteohub,2014-01-04 07:50:00,
2014-01-04 08:55:00,44.1,41.9,29.60,SSW,202,0.0,5.0,92,0.00,,,0.00,meteohub,2014-01-04 07:55:00,
2014-01-04 09:00:00,44.1,41.9,29.60,SSE,158,2.0,4.0,92,0.00,,,0.00,meteohub,2014-01-04 08:00:00,
2014-01-04 09:06:00,44.1,41.9,29.57,South,180,0.0,3.0,92,0.00,,,0.00,meteohub,2014-01-04 08:06:00,
2014-01-04 09:11:00,44.2,42.3,29.57,SE,135,0.0,3.0,93,0.00,,,0.00,meteohub,2014-01-04 08:11:00,
2014-01-04 09:16:00,44.2,42.3,29.57,WSW,248,4.0,4.0,93,0.00,,,0.00,meteohub,2014-01-04 08:16:00,
2014-01-04 09:21:00,44.2,42.3,29.57,WSW,248,1.0,4.0,93,0.00,,,0.00,meteohub,2014-01-04 08:21:00,
2014-01-04 09:26:00,44.2,42.3,29.57,SSE,158,3.0,5.0,93,0.00,,,0.00,meteohub,2014-01-04 08:26:00,
2014-01-04 09:31:00,44.2,42.3,29.57,WNW,292,2.0,5.0,93,0.00,,,0.00,meteohub,2014-01-04 08:31:00,
2014-01-04 09:36:00,44.4,42.8,29.57,SSE,158,1.0,5.0,94,0.00,,,0.00,meteohub,2014-01-04 08:36:00,
2014-01-04 09:41:00,44.4,42.8,29.57,SSW,202,2.0,6.0,94,0.00,,,0.00,meteohub,2014-01-04 08:41:00,
2014-01-04 09:46:00,44.2,42.6,29.57,West,270,1.0,6.0,94,0.00,,,0.00,meteohub,2014-01-04 08:46:00,
2014-01-04 09:51:00,44.2,42.6,29.57,SSW,202,2.0,6.0,94,0.00,,,0.00,meteohub,2014-01-04 08:51:00,
2014-01-04 09:57:00,44.2,42.6,29.57,SSE,158,3.0,5.0,94,0.00,,,0.00,meteohub,2014-01-04 08:57:00,
2014-01-04 10:02:00,44.2,42.6,29.57,WNW,292,3.0,6.0,94,0.00,,,0.00,meteohub,2014-01-04 09:02:00,
2014-01-04 10:49:00,45.5,43.5,29.54,WSW,248,3.0,-999.0,93,0.00,,,0.00,meteohub,2014-01-04 09:49:00,
2014-01-04 10:54:00,45.7,43.7,29.54,SW,225,3.0,6.0,93,0.00,,,0.00,meteohub,2014-01-04 09:54:00,
2014-01-04 11:00:00,45.9,43.9,29.54,SSW,202,2.0,6.0,93,0.00,,,0.00,meteohub,2014-01-04 10:00:00,
2014-01-04 11:05:00,45.9,43.9,29.54,South,180,3.0,6.0,93,0.00,,,0.00,meteohub,2014-01-04 10:05:00,
2014-01-04 11:10:00,45.9,43.7,29.54,WNW,292,6.0,6.0,92,0.00,,,0.00,meteohub,2014-01-04 10:10:00,
2014-01-04 11:15:00,45.9,43.7,29.54,East,90,2.0,5.0,92,0.00,,,0.00,meteohub,2014-01-04 10:15:00,
2014-01-04 11:20:00,45.9,43.7,29.51,WSW,248,3.0,6.0,92,0.00,,,0.00,meteohub,2014-01-04 10:20:00,
2014-01-04 11:25:00,46.0,43.9,29.51,WSW,248,2.0,4.0,92,0.00,,,0.00,meteohub,2014-01-04 10:25:00,
2014-01-04 11:30:00,46.0,43.9,29.51,SSW,202,3.0,5.0,92,0.00,,,0.00,meteohub,2014-01-04 10:30:00,
2014-01-04 11:35:00,46.2,44.1,29.51,NNE,22,5.0,6.0,92,0.00,,,0.00,meteohub,2014-01-04 10:35:00,
2014-01-04 11:40:00,46.2,44.1,29.51,NNE,22,4.0,6.0,92,0.00,,,0.00,meteohub,2014-01-04 10:40:00,
2014-01-04 11:45:00,46.4,44.2,29.51,South,180,3.0,6.0,92,0.00,,,0.00,meteohub,2014-01-04 10:45:00,
2014-01-04 11:51:00,46.4,44.2,29.48,SSE,158,2.0,6.0,92,0.00,,,0.00,meteohub,2014-01-04 10:51:00,
2014-01-04 11:56:00,46.6,44.4,29.48,SW,225,2.0,6.0,92,0.00,,,0.00,meteohub,2014-01-04 10:56:00,
2014-01-04 12:01:00,46.8,44.6,29.48,East,90,1.0,6.0,92,0.00,,,0.00,meteohub,2014-01-04 11:01:00,
2014-01-04 12:06:00,46.8,44.6,29.45,ENE,68,2.0,6.0,92,0.00,,,0.00,meteohub,2014-01-04 11:06:00,
2014-01-04 12:11:00,46.8,44.2,29.45,WSW,248,3.0,6.0,91,0.00,,,0.00,meteohub,2014-01-04 11:11:00,
2014-01-04 12:16:00,47.1,44.6,29.45,ESE,112,3.0,6.0,91,0.00,,,0.00,meteohub,2014-01-04 11:16:00,
2014-01-04 12:21:00,47.3,45.1,29.48,SSE,158,3.0,6.0,92,0.00,,,0.00,meteohub,2014-01-04 11:21:00,
2014-01-04 12:26:00,47.3,44.8,29.48,ESE,112,2.0,6.0,91,0.00,,,0.00,meteohub,2014-01-04 11:26:00,
2014-01-04 12:31:00,47.3,44.8,29.48,SSE,158,3.0,6.0,91,0.00,,,0.00,meteohub,2014-01-04 11:31:00,
2014-01-04 12:37:00,47.3,44.6,29.48,WSW,248,5.0,7.0,90,0.00,,,0.00,meteohub,2014-01-04 11:37:00,
2014-01-04 12:42:00,47.5,44.8,29.48,SSW,202,2.0,8.0,90,0.00,,,0.00,meteohub,2014-01-04 11:42:00,
2014-01-04 12:47:00,47.5,44.8,29.48,SW,225,1.0,8.0,90,0.00,,,0.00,meteohub,2014-01-04 11:47:00,
2014-01-04 12:52:00,47.5,44.8,29.45,SE,135,5.0,8.0,90,0.00,,,0.00,meteohub,2014-01-04 11:52:00,
2014-01-04 12:57:00,47.7,45.0,29.45,SSW,202,2.0,8.0,90,0.00,,,0.00,meteohub,2014-01-04 11:57:00,
2014-01-04 13:02:00,47.8,45.1,29.45,ESE,112,6.0,9.0,90,0.00,,,0.00,meteohub,2014-01-04 12:02:00,
2014-01-04 13:07:00,48.0,45.3,29.45,SSW,202,5.0,9.0,90,0.00,,,0.00,meteohub,2014-01-04 12:07:00,
2014-01-04 13:12:00,48.0,45.0,29.45,SW,225,3.0,9.0,89,0.00,,,0.00,meteohub,2014-01-04 12:12:00,
2014-01-04 13:17:00,48.0,45.0,29.45,SSW,202,1.0,6.0,89,0.00,,,0.00,meteohub,2014-01-04 12:17:00,
2014-01-04 13:22:00,48.0,44.6,29.45,SSW,202,6.0,6.0,88,0.00,,,0.00,meteohub,2014-01-04 12:22:00,
2014-01-04 13:27:00,48.2,44.6,29.45,SSW,202,6.0,6.0,87,0.00,,,0.00,meteohub,2014-01-04 12:27:00,
2014-01-04 13:32:00,48.2,44.6,29.45,East,90,2.0,7.0,87,0.00,,,0.00,meteohub,2014-01-04 12:32:00,
2014-01-04 13:37:00,48.2,44.6,29.42,WSW,248,3.0,7.0,87,0.00,,,0.00,meteohub,2014-01-04 12:37:00,
2014-01-04 13:42:00,48.2,44.2,29.42,East,90,4.0,7.0,86,0.00,,,0.00,meteohub,2014-01-04 12:42:00,
2014-01-04 13:47:00,48.2,44.2,29.42,SE,135,4.0,9.0,86,0.00,,,0.00,meteohub,2014-01-04 12:47:00,
2014-01-04 13:52:00,48.2,44.2,29.39,WSW,248,2.0,9.0,86,0.00,,,0.00,meteohub,2014-01-04 12:52:00,
2014-01-04 13:57:00,48.2,44.2,29.39,SSW,202,3.0,6.0,86,0.00,,,0.00,meteohub,2014-01-04 12:57:00,
2014-01-04 14:02:00,48.2,44.2,29.39,SE,135,1.0,6.0,86,0.00,,,0.00,meteohub,2014-01-04 13:02:00,
2014-01-04 14:07:00,48.4,44.4,29.42,WSW,248,3.0,6.0,86,0.00,,,0.00,meteohub,2014-01-04 13:07:00,
2014-01-04 14:12:00,48.4,44.4,29.42,SSW,202,8.0,8.0,86,0.00,,,0.00,meteohub,2014-01-04 13:12:00,
2014-01-04 14:17:00,48.4,44.1,29.42,NNW,338,1.0,8.0,85,0.00,,,0.00,meteohub,2014-01-04 13:17:00,
2014-01-04 14:22:00,48.6,44.2,29.42,NNW,338,3.0,8.0,85,0.00,,,0.00,meteohub,2014-01-04 13:22:00,
2014-01-04 14:27:00,48.6,44.2,29.42,ESE,112,2.0,8.0,85,0.00,,,0.00,meteohub,2014-01-04 13:27:00,
2014-01-04 14:32:00,48.6,44.2,29.42,SSE,158,3.0,7.0,85,0.00,,,0.00,meteohub,2014-01-04 13:32:00,
2014-01-04 14:37:00,48.6,44.2,29.42,East,90,5.0,7.0,85,0.00,,,0.00,meteohub,2014-01-04 13:37:00,
2014-01-04 14:42:00,48.6,44.2,29.42,South,180,3.0,7.0,85,0.00,,,0.00,meteohub,2014-01-04 13:42:00,
2014-01-04 14:47:00,48.6,43.9,29.42,SSE,158,2.0,7.0,84,0.00,,,0.00,meteohub,2014-01-04 13:47:00,
2014-01-04 14:52:00,48.6,43.9,29.39,East,90,3.0,7.0,84,0.00,,,0.00,meteohub,2014-01-04 13:52:00,
2014-01-04 14:57:00,48.6,43.9,29.39,ENE,68,3.0,7.0,84,0.00,,,0.00,meteohub,2014-01-04 13:57:00,
2014-01-04 15:02:00,48.6,43.9,29.39,ESE,112,3.0,6.0,84,0.00,,,0.00,meteohub,2014-01-04 14:02:00,
2014-01-04 15:07:00,48.6,43.9,29.36,West,270,4.0,6.0,84,0.00,,,0.00,meteohub,2014-01-04 14:07:00,
2014-01-04 15:12:00,48.6,43.9,29.36,ESE,112,8.0,8.0,84,0.00,,,0.00,meteohub,2014-01-04 14:12:00,
2014-01-04 15:17:00,48.6,43.9,29.36,SSW,202,3.0,9.0,84,0.00,,,0.00,meteohub,2014-01-04 14:17:00,
2014-01-04 15:22:00,48.6,43.9,29.36,SSE,158,4.0,9.0,84,0.00,,,0.00,meteohub,2014-01-04 14:22:00,
2014-01-04 15:27:00,48.7,44.1,29.36,ENE,68,1.0,9.0,84,0.00,,,0.00,meteohub,2014-01-04 14:27:00,
2014-01-04 15:32:00,48.7,44.1,29.36,SSE,158,4.0,9.0,84,0.00,,,0.00,meteohub,2014-01-04 14:32:00,
2014-01-04 15:37:00,48.7,44.1,29.36,WNW,292,1.0,7.0,84,0.00,,,0.00,meteohub,2014-01-04 14:37:00,
2014-01-04 15:42:00,48.7,44.1,29.36,WSW,248,6.0,7.0,84,0.00,,,0.00,meteohub,2014-01-04 14:42:00,
2014-01-04 15:48:00,48.7,44.1,29.36,WNW,292,7.0,7.0,84,0.00,,,0.00,meteohub,2014-01-04 14:48:00,
2014-01-04 15:53:00,48.7,44.1,29.36,SSE,158,3.0,7.0,84,0.00,,,0.00,meteohub,2014-01-04 14:53:00,
2014-01-04 15:58:00,48.7,44.4,29.36,SSW,202,6.0,7.0,85,0.00,,,0.00,meteohub,2014-01-04 14:58:00,
2014-01-04 16:03:00,48.7,44.4,29.36,SSW,202,3.0,7.0,85,0.00,,,0.00,meteohub,2014-01-04 15:03:00,
2014-01-04 16:08:00,48.7,44.4,29.36,ESE,112,1.0,7.0,85,0.00,,,0.00,meteohub,2014-01-04 15:08:00,
2014-01-04 16:13:00,48.9,44.6,29.36,ENE,68,3.0,7.0,85,0.00,,,0.00,meteohub,2014-01-04 15:13:00,
2014-01-04 16:18:00,48.9,44.6,29.36,SSE,158,4.0,7.0,85,0.00,,,0.00,meteohub,2014-01-04 15:18:00,
2014-01-04 16:23:00,48.9,45.0,29.36,SSW,202,3.0,7.0,86,0.00,,,0.00,meteohub,2014-01-04 15:23:00,
2014-01-04 16:28:00,48.9,45.0,29.36,SSW,202,3.0,7.0,86,0.00,,,0.00,meteohub,2014-01-04 15:28:00,
2014-01-04 16:34:00,48.7,45.1,29.34,SSW,202,3.0,6.0,87,0.00,,,0.00,meteohub,2014-01-04 15:34:00,
2014-01-04 16:39:00,48.6,45.7,29.34,South,180,1.0,6.0,90,0.00,,,0.00,meteohub,2014-01-04 15:39:00,
2014-01-04 16:44:00,48.6,46.0,29.34,WSW,248,2.0,9.0,91,0.00,,,0.00,meteohub,2014-01-04 15:44:00,
2014-01-04 16:49:00,48.6,46.0,29.36,SSE,158,3.0,9.0,91,0.00,,,0.00,meteohub,2014-01-04 15:49:00,
2014-01-04 16:54:00,48.4,46.2,29.36,South,180,3.0,9.0,92,0.00,,,0.00,meteohub,2014-01-04 15:54:00,
2014-01-04 16:59:00,48.4,46.4,29.36,SSW,202,3.0,7.0,93,0.00,,,0.00,meteohub,2014-01-04 15:59:00,
2014-01-04 17:04:00,48.4,46.4,29.39,SSE,158,2.0,7.0,93,0.00,,,0.00,meteohub,2014-01-04 16:04:00,
2014-01-04 17:09:00,48.4,46.4,29.39,SSW,202,4.0,9.0,93,0.00,,,0.00,meteohub,2014-01-04 16:09:00,
2014-01-04 17:14:00,48.4,46.4,29.39,WSW,248,1.0,9.0,93,0.00,,,0.00,meteohub,2014-01-04 16:14:00,
2014-01-04 17:19:00,48.4,46.2,29.36,SSE,158,3.0,9.0,92,0.00,,,0.00,meteohub,2014-01-04 16:19:00,
2014-01-04 17:25:00,48.4,46.2,29.36,SSE,158,2.0,6.0,92,0.00,,,0.00,meteohub,2014-01-04 16:25:00,
2014-01-04 17:30:00,48.2,46.0,29.36,SSW,202,2.0,6.0,92,0.00,,,0.00,meteohub,2014-01-04 16:30:00,
2014-01-04 17:35:00,48.4,46.2,29.36,SSW,202,3.0,6.0,92,0.00,,,0.00,meteohub,2014-01-04 16:35:00,
2014-01-04 17:40:00,48.4,46.2,29.36,SSW,202,2.0,4.0,92,0.00,,,0.00,meteohub,2014-01-04 16:40:00,
2014-01-04 17:45:00,48.4,46.2,29.36,SSW,202,3.0,4.0,92,0.00,,,0.00,meteohub,2014-01-04 16:45:00,
2014-01-04 17:50:00,48.4,46.2,29.36,SSW,202,0.0,5.0,92,0.00,,,0.00,meteohub,2014-01-04 16:50:00,
2014-01-04 17:55:00,48.4,46.2,29.36,ESE,112,1.0,5.0,92,0.00,,,0.00,meteohub,2014-01-04 16:55:00,
2014-01-04 18:00:00,48.4,46.2,29.36,SE,135,3.0,5.0,92,0.00,,,0.00,meteohub,2014-01-04 17:00:00,
2014-01-04 18:05:00,48.4,46.2,29.36,South,180,3.0,9.0,92,0.04,,,0.04,meteohub,2014-01-04 17:05:00,
2014-01-04 18:11:00,48.6,46.4,29.36,SSW,202,3.0,9.0,92,0.04,,,0.04,meteohub,2014-01-04 17:11:00,
2014-01-04 18:16:00,48.6,46.4,29.36,SSW,202,4.0,9.0,92,0.04,,,0.04,meteohub,2014-01-04 17:16:00,
2014-01-04 18:21:00,48.6,46.0,29.36,SSW,202,3.0,9.0,91,0.04,,,0.04,meteohub,2014-01-04 17:21:00,
2014-01-04 18:26:00,48.7,46.2,29.36,SSW,202,1.0,9.0,91,0.04,,,0.04,meteohub,2014-01-04 17:26:00,
2014-01-04 18:31:00,48.7,46.2,29.36,South,180,2.0,8.0,91,0.04,,,0.04,meteohub,2014-01-04 17:31:00,
2014-01-04 18:36:00,48.7,46.2,29.34,SW,225,3.0,8.0,91,0.04,,,0.04,meteohub,2014-01-04 17:36:00,
2014-01-04 18:41:00,48.7,46.2,29.34,WNW,292,3.0,6.0,91,0.04,,,0.04,meteohub,2014-01-04 17:41:00,
2014-01-04 18:46:00,48.7,46.2,29.34,SSW,202,3.0,6.0,91,0.04,,,0.04,meteohub,2014-01-04 17:46:00,
2014-01-04 18:51:00,48.7,45.9,29.34,SSE,158,2.0,6.0,90,0.04,,,0.04,meteohub,2014-01-04 17:51:00,
2014-01-04 18:57:00,48.6,45.7,29.34,NE,45,2.0,6.0,90,0.04,,,0.04,meteohub,2014-01-04 17:57:00,
2014-01-04 19:02:00,48.6,45.7,29.34,South,180,3.0,6.0,90,0.00,,,0.04,meteohub,2014-01-04 18:02:00,
2014-01-04 19:07:00,48.6,45.7,29.34,SSW,202,3.0,6.0,90,0.00,,,0.04,meteohub,2014-01-04 18:07:00,
2014-01-04 19:12:00,48.6,45.7,29.34,SSE,158,1.0,6.0,90,0.00,,,0.04,meteohub,2014-01-04 18:12:00,
2014-01-04 19:17:00,48.6,45.7,29.34,SSE,158,3.0,6.0,90,0.00,,,0.04,meteohub,2014-01-04 18:17:00,
2014-01-04 19:22:00,48.4,45.5,29.31,WSW,248,0.0,5.0,90,0.00,,,0.04,meteohub,2014-01-04 18:22:00,
2014-01-04 19:27:00,48.4,45.5,29.31,SSE,158,2.0,5.0,90,0.00,,,0.04,meteohub,2014-01-04 18:27:00,
2014-01-04 19:32:00,48.4,45.5,29.31,SSE,158,2.0,6.0,90,0.00,,,0.04,meteohub,2014-01-04 18:32:00,
2014-01-04 19:37:00,48.4,45.5,29.31,SSW,202,3.0,6.0,90,0.00,,,0.04,meteohub,2014-01-04 18:37:00,
2014-01-04 19:42:00,48.2,45.5,29.31,NNE,22,1.0,4.0,90,0.00,,,0.04,meteohub,2014-01-04 18:42:00,
2014-01-04 19:47:00,48.2,45.5,29.31,SSW,202,4.0,4.0,90,0.00,,,0.04,meteohub,2014-01-04 18:47:00,
2014-01-04 19:52:00,48.2,45.7,29.31,SSW,202,2.0,5.0,91,0.00,,,0.04,meteohub,2014-01-04 18:52:00,
2014-01-04 19:57:00,48.0,45.5,29.31,South,180,2.0,6.0,91,0.00,,,0.04,meteohub,2014-01-04 18:57:00,
2014-01-04 20:02:00,48.0,45.5,29.31,SSW,202,2.0,6.0,91,0.00,,,0.04,meteohub,2014-01-04 19:02:00,
2014-01-04 20:07:00,48.0,45.5,29.31,SSW,202,4.0,6.0,91,0.00,,,0.04,meteohub,2014-01-04 19:07:00,
2014-01-04 20:12:00,47.8,45.3,29.31,SSW,202,3.0,4.0,91,0.00,,,0.04,meteohub,2014-01-04 19:12:00,
2014-01-04 20:17:00,47.8,45.7,29.31,South,180,2.0,6.0,92,0.00,,,0.04,meteohub,2014-01-04 19:17:00,
2014-01-04 20:22:00,47.8,45.7,29.31,SSE,158,1.0,6.0,92,0.00,,,0.04,meteohub,2014-01-04 19:22:00,
2014-01-04 20:27:00,47.7,45.5,29.31,WSW,248,2.0,6.0,92,0.00,,,0.04,meteohub,2014-01-04 19:27:00,
2014-01-04 20:32:00,47.7,45.5,29.31,SSW,202,2.0,6.0,92,0.00,,,0.04,meteohub,2014-01-04 19:32:00,
2014-01-04 20:37:00,47.5,45.3,29.31,SSW,202,1.0,6.0,92,0.00,,,0.04,meteohub,2014-01-04 19:37:00,
2014-01-04 20:42:00,47.5,45.3,29.31,SW,225,0.0,4.0,92,0.00,,,0.04,meteohub,2014-01-04 19:42:00,
2014-01-04 20:47:00,47.3,45.1,29.31,South,180,2.0,3.0,92,0.00,,,0.04,meteohub,2014-01-04 19:47:00,
2014-01-04 20:52:00,47.3,45.1,29.31,NNE,22,2.0,2.0,92,0.00,,,0.04,meteohub,2014-01-04 19:52:00,
2014-01-04 20:57:00,47.1,45.0,29.31,SSW,202,1.0,3.0,92,0.00,,,0.04,meteohub,2014-01-04 19:57:00,
2014-01-04 21:02:00,47.1,45.0,29.31,WSW,248,0.0,3.0,92,0.00,,,0.04,meteohub,2014-01-04 20:02:00,
2014-01-04 21:07:00,46.9,44.8,29.28,SSW,202,0.0,3.0,92,0.00,,,0.04,meteohub,2014-01-04 20:07:00,
2014-01-04 21:12:00,46.8,44.8,29.28,SW,225,1.0,2.0,93,0.00,,,0.04,meteohub,2014-01-04 20:12:00,
2014-01-04 21:17:00,46.8,44.8,29.28,SSE,158,0.0,3.0,93,0.00,,,0.04,meteohub,2014-01-04 20:17:00,
2014-01-04 21:22:00,46.8,44.8,29.31,SSW,202,2.0,3.0,93,0.00,,,0.04,meteohub,2014-01-04 20:22:00,
2014-01-04 21:27:00,46.8,44.8,29.31,South,180,0.0,4.0,93,0.00,,,0.04,meteohub,2014-01-04 20:27:00,
2014-01-04 21:32:00,46.8,45.1,29.31,SSE,158,1.0,4.0,94,0.00,,,0.04,meteohub,2014-01-04 20:32:00,
2014-01-04 21:37:00,46.8,45.1,29.31,ESE,112,1.0,4.0,94,0.00,,,0.04,meteohub,2014-01-04 20:37:00,
2014-01-04 21:42:00,46.8,45.1,29.31,SW,225,2.0,5.0,94,0.00,,,0.04,meteohub,2014-01-04 20:42:00,
2014-01-04 21:47:00,46.8,45.1,29.31,ESE,112,3.0,5.0,94,0.00,,,0.04,meteohub,2014-01-04 20:47:00,
2014-01-04 21:52:00,46.8,45.3,29.31,SSW,202,4.0,6.0,95,0.00,,,0.04,meteohub,2014-01-04 20:52:00,
2014-01-04 21:57:00,46.8,45.3,29.31,SSW,202,1.0,6.0,95,0.00,,,0.04,meteohub,2014-01-04 20:57:00,
2014-01-04 22:02:00,46.8,45.3,29.31,South,180,2.0,6.0,95,0.00,,,0.04,meteohub,2014-01-04 21:02:00,
2014-01-04 22:07:00,46.8,45.3,29.31,SSW,202,4.0,6.0,95,0.00,,,0.04,meteohub,2014-01-04 21:07:00,
2014-01-04 22:12:00,46.6,45.1,29.31,South,180,0.0,4.0,95,0.00,,,0.04,meteohub,2014-01-04 21:12:00,
2014-01-04 22:17:00,46.6,45.1,29.31,SW,225,1.0,4.0,95,0.00,,,0.04,meteohub,2014-01-04 21:17:00,
2014-01-04 22:22:00,46.6,45.1,29.31,SSE,158,3.0,4.0,95,0.00,,,0.04,meteohub,2014-01-04 21:22:00,
2014-01-04 22:27:00,46.6,45.1,29.31,South,180,0.0,4.0,95,0.00,,,0.04,meteohub,2014-01-04 21:27:00,
2014-01-04 22:32:00,46.6,45.1,29.31,South,180,2.0,4.0,95,0.00,,,0.04,meteohub,2014-01-04 21:32:00,
2014-01-04 22:37:00,46.6,45.1,29.31,SSE,158,2.0,4.0,95,0.00,,,0.04,meteohub,2014-01-04 21:37:00,
2014-01-04 22:42:00,46.6,45.1,29.31,SSW,202,1.0,6.0,95,0.00,,,0.04,meteohub,2014-01-04 21:42:00,
2014-01-04 22:47:00,46.6,45.1,29.31,SE,135,3.0,6.0,95,0.00,,,0.04,meteohub,2014-01-04 21:47:00,
2014-01-04 22:53:00,46.6,45.5,29.31,SSE,158,2.0,6.0,96,0.00,,,0.04,meteohub,2014-01-04 21:53:00,
2014-01-04 22:58:00,46.6,45.1,29.31,ESE,112,2.0,4.0,95,0.00,,,0.04,meteohub,2014-01-04 21:58:00,
2014-01-04 23:03:00,46.4,45.3,29.31,SSW,202,0.0,4.0,96,0.00,,,0.04,meteohub,2014-01-04 22:03:00,
2014-01-04 23:08:00,46.4,45.3,29.31,South,180,0.0,3.0,96,0.00,,,0.04,meteohub,2014-01-04 22:08:00,
2014-01-04 23:13:00,46.4,45.3,29.31,SSW,202,0.0,4.0,96,0.00,,,0.04,meteohub,2014-01-04 22:13:00,
2014-01-04 23:18:00,46.2,45.1,29.34,SSW,202,2.0,4.0,96,0.00,,,0.04,meteohub,2014-01-04 22:18:00,
2014-01-04 23:23:00,46.2,45.1,29.34,SSW,202,3.0,4.0,96,0.00,,,0.04,meteohub,2014-01-04 22:23:00,
2014-01-04 23:28:00,46.4,45.3,29.34,SSW,202,3.0,4.0,96,0.00,,,0.04,meteohub,2014-01-04 22:28:00,
2014-01-04 23:34:00,46.6,45.5,29.31,SSW,202,2.0,4.0,96,0.00,,,0.04,meteohub,2014-01-04 22:34:00,
2014-01-04 23:39:00,46.9,46.2,29.31,SSW,202,3.0,6.0,97,0.00,,,0.04,meteohub,2014-01-04 22:39:00,
2014-01-04 23:44:00,47.3,46.6,29.31,South,180,3.0,8.0,97,0.00,,,0.04,meteohub,2014-01-04 22:44:00,
2014-01-04 23:49:00,47.7,47.1,29.34,SSW,202,5.0,8.0,98,0.00,,,0.04,meteohub,2014-01-04 22:49:00,
2014-01-04 23:54:00,47.8,47.1,29.34,SE,135,8.0,8.0,97,0.00,,,0.04,meteohub,2014-01-04 22:54:00,
2014-01-04 23:59:00,48.0,47.3,29.34,WSW,248,4.0,8.0,97,0.00,,,0.04,meteohub,2014-01-04 22:59:00,